sensor_id;sensor_type;location;lat;lon;timestamp;pressure;altitude;pressure_sealevel;temperature;humidity
19672;BME280;9983;51.114;13.788;2023-03-04T00:03:18;99810.66;;;2.35;100.00
19672;BME280;9983;51.114;13.788;2023-03-04T00:08:19;99812.88;;;2.52;100.00
19672;BME280;9983;51.114;13.788;2023-03-04T00:13:19;99809.69;;;2.24;100.00
19672;BME280;9983;51.114;13.788;2023-03-04T00:18:21;99801.19;;;2.08;100.00
19672;BME280;9983;51.114;13.788;2023-03-04T00:23:21;99806.81;;;2.04;100.00
19672;BME280;9983;51.114;13.788;2023-03-04T00:28:22;99799.44;;;2.55;100.00
19672;BME280;9983;51.114;13.788;2023-03-04T00:33:22;99791.97;;;2.60;100.00
19672;BME280;9983;51.114;13.788;2023-03-04T00:38:22;99791.66;;;2.29;100.00
19672;BME280;9983;51.114;13.788;2023-03-04T00:43:23;99787.53;;;2.60;100.00
19672;BME280;9983;51.114;13.788;2023-03-04T00:48:23;99785.50;;;2.64;100.00
19672;BME280;9983;51.114;13.788;2023-03-04T00:53:23;99781.06;;;2.29;100.00
19672;BME280;9983;51.114;13.788;2023-03-04T00:58:23;99784.59;;;2.06;100.00
19672;BME280;9983;51.114;13.788;2023-03-04T01:03:24;99772.53;;;2.72;100.00
19672;BME280;9983;51.114;13.788;2023-03-04T01:08:25;99771.41;;;2.17;100.00
19672;BME280;9983;51.114;13.788;2023-03-04T01:13:26;99760.47;;;2.57;100.00
19672;BME280;9983;51.114;13.788;2023-03-04T01:18:26;99748.69;;;2.15;100.00
19672;BME280;9983;51.114;13.788;2023-03-04T01:23:26;99741.47;;;2.63;100.00
19672;BME280;9983;51.114;13.788;2023-03-04T01:28:27;99726.38;;;2.41;100.00
19672;BME280;9983;51.114;13.788;2023-03-04T01:33:27;99738.72;;;1.95;100.00
19672;BME280;9983;51.114;13.788;2023-03-04T01:38:27;99728.09;;;2.64;100.00
19672;BME280;9983;51.114;13.788;2023-03-04T01:43:29;99714.97;;;2.41;100.00
19672;BME280;9983;51.114;13.788;2023-03-04T01:48:33;99728.63;;;2.23;100.00
19672;BME280;9983;51.114;13.788;2023-03-04T01:53:36;99716.34;;;2.22;100.00
19672;BME280;9983;51.114;13.788;2023-03-04T01:58:36;99701.41;;;2.10;100.00
19672;BME280;9983;51.114;13.788;2023-03-04T02:03:36;99699.06;;;1.83;100.00
19672;BME280;9983;51.114;13.788;2023-03-04T02:08:37;99695.38;;;1.97;100.00
19672;BME280;9983;51.114;13.788;2023-03-04T02:13:37;99696.50;;;1.82;100.00
19672;BME280;9983;51.114;13.788;2023-03-04T02:18:38;99685.22;;;2.26;100.00
19672;BME280;9983;51.114;13.788;2023-03-04T02:23:46;99696.41;;;2.29;100.00
19672;BME280;9983;51.114;13.788;2023-03-04T02:28:50;99685.34;;;2.36;100.00
19672;BME280;9983;51.114;13.788;2023-03-04T02:33:52;99682.69;;;2.24;100.00
19672;BME280;9983;51.114;13.788;2023-03-04T02:38:53;99664.44;;;2.44;100.00
19672;BME280;9983;51.114;13.788;2023-03-04T02:43:54;99672.13;;;2.24;100.00
19672;BME280;9983;51.114;13.788;2023-03-04T02:48:55;99652.34;;;2.06;100.00
19672;BME280;9983;51.114;13.788;2023-03-04T02:53:55;99651.66;;;2.26;100.00
19672;BME280;9983;51.114;13.788;2023-03-04T02:58:55;99647.34;;;2.25;100.00
19672;BME280;9983;51.114;13.788;2023-03-04T03:03:56;99632.91;;;2.29;100.00
19672;BME280;9983;51.114;13.788;2023-03-04T03:08:56;99629.53;;;2.27;100.00
19672;BME280;9983;51.114;13.788;2023-03-04T03:13:56;99637.75;;;2.47;100.00
19672;BME280;9983;51.114;13.788;2023-03-04T03:18:57;99623.53;;;2.37;100.00
19672;BME280;9983;51.114;13.788;2023-03-04T03:23:57;99617.53;;;2.23;100.00
19672;BME280;9983;51.114;13.788;2023-03-04T03:28:57;99614.38;;;2.18;100.00
19672;BME280;9983;51.114;13.788;2023-03-04T03:33:58;99622.34;;;2.29;100.00
19672;BME280;9983;51.114;13.788;2023-03-04T03:38:58;99629.03;;;2.11;100.00
19672;BME280;9983;51.114;13.788;2023-03-04T03:43:58;99631.78;;;2.10;100.00
19672;BME280;9983;51.114;13.788;2023-03-04T03:48:58;99621.34;;;2.19;100.00
19672;BME280;9983;51.114;13.788;2023-03-04T03:53:58;99619.34;;;2.34;100.00
19672;BME280;9983;51.114;13.788;2023-03-04T03:58:59;99619.34;;;2.34;100.00
19672;BME280;9983;51.114;13.788;2023-03-04T04:03:59;99610.31;;;2.48;100.00
19672;BME280;9983;51.114;13.788;2023-03-04T04:08:59;99609.84;;;2.32;100.00
19672;BME280;9983;51.114;13.788;2023-03-04T04:14:00;99626.88;;;2.05;100.00
19672;BME280;9983;51.114;13.788;2023-03-04T04:19:00;99623.53;;;2.14;100.00
19672;BME280;9983;51.114;13.788;2023-03-04T04:24:00;99625.22;;;2.15;100.00
19672;BME280;9983;51.114;13.788;2023-03-04T04:29:01;99627.63;;;2.29;100.00
19672;BME280;9983;51.114;13.788;2023-03-04T04:34:01;99624.13;;;2.51;100.00
19672;BME280;9983;51.114;13.788;2023-03-04T04:39:02;99630.94;;;2.09;100.00
19672;BME280;9983;51.114;13.788;2023-03-04T04:44:02;99637.50;;;2.61;100.00
19672;BME280;9983;51.114;13.788;2023-03-04T04:49:04;99629.19;;;2.54;100.00
19672;BME280;9983;51.114;13.788;2023-03-04T04:54:05;99613.22;;;2.56;100.00
19672;BME280;9983;51.114;13.788;2023-03-04T04:59:05;99610.56;;;2.22;100.00
19672;BME280;9983;51.114;13.788;2023-03-04T05:04:07;99617.41;;;2.70;100.00
19672;BME280;9983;51.114;13.788;2023-03-04T05:09:07;99611.53;;;2.33;100.00
19672;BME280;9983;51.114;13.788;2023-03-04T05:14:08;99603.09;;;2.72;100.00
19672;BME280;9983;51.114;13.788;2023-03-04T05:19:08;99615.09;;;2.98;100.00
19672;BME280;9983;51.114;13.788;2023-03-04T05:24:08;99607.78;;;2.46;100.00
19672;BME280;9983;51.114;13.788;2023-03-04T05:29:08;99602.16;;;2.40;100.00
19672;BME280;9983;51.114;13.788;2023-03-04T05:34:09;99593.22;;;2.63;100.00
19672;BME280;9983;51.114;13.788;2023-03-04T05:39:09;99592.72;;;2.91;100.00
19672;BME280;9983;51.114;13.788;2023-03-04T05:44:10;99590.34;;;2.55;100.00
19672;BME280;9983;51.114;13.788;2023-03-04T05:49:10;99582.53;;;2.76;100.00
19672;BME280;9983;51.114;13.788;2023-03-04T05:54:10;99592.94;;;2.88;100.00
19672;BME280;9983;51.114;13.788;2023-03-04T05:59:10;99586.59;;;2.68;100.00
19672;BME280;9983;51.114;13.788;2023-03-04T06:04:11;99579.59;;;2.90;100.00
19672;BME280;9983;51.114;13.788;2023-03-04T06:09:12;99573.78;;;2.42;100.00
19672;BME280;9983;51.114;13.788;2023-03-04T06:14:12;99576.84;;;2.91;100.00
19672;BME280;9983;51.114;13.788;2023-03-04T06:19:12;99566.28;;;2.36;100.00
19672;BME280;9983;51.114;13.788;2023-03-04T06:24:13;99573.84;;;2.74;100.00
19672;BME280;9983;51.114;13.788;2023-03-04T06:29:13;99580.59;;;2.55;100.00
19672;BME280;9983;51.114;13.788;2023-03-04T06:34:14;99580.47;;;2.68;100.00
19672;BME280;9983;51.114;13.788;2023-03-04T06:39:14;99582.03;;;2.82;100.00
19672;BME280;9983;51.114;13.788;2023-03-04T06:44:15;99578.31;;;2.62;100.00
19672;BME280;9983;51.114;13.788;2023-03-04T06:49:15;99579.91;;;3.08;100.00
19672;BME280;9983;51.114;13.788;2023-03-04T06:54:15;99583.22;;;3.32;100.00
19672;BME280;9983;51.114;13.788;2023-03-04T06:59:16;99578.69;;;3.12;100.00
19672;BME280;9983;51.114;13.788;2023-03-04T07:04:16;99580.63;;;3.10;100.00
19672;BME280;9983;51.114;13.788;2023-03-04T07:09:17;99580.34;;;3.24;100.00
19672;BME280;9983;51.114;13.788;2023-03-04T07:14:17;99572.50;;;2.90;100.00
19672;BME280;9983;51.114;13.788;2023-03-04T07:19:17;99573.06;;;3.05;100.00
19672;BME280;9983;51.114;13.788;2023-03-04T07:24:18;99592.38;;;2.74;100.00
19672;BME280;9983;51.114;13.788;2023-03-04T07:29:18;99571.97;;;3.08;100.00
19672;BME280;9983;51.114;13.788;2023-03-04T07:34:18;99568.19;;;2.78;100.00
19672;BME280;9983;51.114;13.788;2023-03-04T07:39:18;99568.25;;;2.99;100.00
19672;BME280;9983;51.114;13.788;2023-03-04T07:44:19;99576.75;;;3.14;100.00
19672;BME280;9983;51.114;13.788;2023-03-04T07:49:20;99571.31;;;2.83;100.00
19672;BME280;9983;51.114;13.788;2023-03-04T07:54:20;99578.44;;;3.15;100.00
19672;BME280;9983;51.114;13.788;2023-03-04T07:59:21;99578.03;;;2.87;100.00
19672;BME280;9983;51.114;13.788;2023-03-04T08:04:21;99563.19;;;3.39;100.00
19672;BME280;9983;51.114;13.788;2023-03-04T08:09:21;99564.38;;;3.35;100.00
19672;BME280;9983;51.114;13.788;2023-03-04T08:14:21;99568.09;;;3.12;100.00
19672;BME280;9983;51.114;13.788;2023-03-04T08:19:22;99561.19;;;3.20;100.00
19672;BME280;9983;51.114;13.788;2023-03-04T08:24:22;99565.06;;;3.48;100.00
19672;BME280;9983;51.114;13.788;2023-03-04T08:29:24;99543.47;;;3.32;100.00
19672;BME280;9983;51.114;13.788;2023-03-04T08:34:26;99564.25;;;3.16;100.00
19672;BME280;9983;51.114;13.788;2023-03-04T08:39:26;99549.47;;;3.34;100.00
19672;BME280;9983;51.114;13.788;2023-03-04T08:44:27;99549.13;;;3.59;100.00
19672;BME280;9983;51.114;13.788;2023-03-04T08:49:27;99558.41;;;3.33;100.00
19672;BME280;9983;51.114;13.788;2023-03-04T08:54:27;99556.22;;;3.27;100.00
19672;BME280;9983;51.114;13.788;2023-03-04T08:59:27;99551.41;;;3.53;100.00
19672;BME280;9983;51.114;13.788;2023-03-04T09:04:28;99549.94;;;3.39;100.00
19672;BME280;9983;51.114;13.788;2023-03-04T09:09:28;99543.31;;;3.96;100.00
19672;BME280;9983;51.114;13.788;2023-03-04T09:14:28;99546.19;;;3.62;100.00
19672;BME280;9983;51.114;13.788;2023-03-04T09:19:28;99545.06;;;3.86;100.00
19672;BME280;9983;51.114;13.788;2023-03-04T09:24:29;99549.69;;;3.84;100.00
19672;BME280;9983;51.114;13.788;2023-03-04T09:29:29;99548.72;;;3.64;100.00
19672;BME280;9983;51.114;13.788;2023-03-04T09:34:29;99548.03;;;4.13;100.00
19672;BME280;9983;51.114;13.788;2023-03-04T09:39:30;99535.72;;;3.81;100.00
19672;BME280;9983;51.114;13.788;2023-03-04T09:44:39;99542.34;;;4.27;100.00
19672;BME280;9983;51.114;13.788;2023-03-04T09:49:44;99535.13;;;3.78;100.00
19672;BME280;9983;51.114;13.788;2023-03-04T09:54:54;99529.25;;;3.74;100.00
19672;BME280;9983;51.114;13.788;2023-03-04T10:00:16;99529.16;;;3.86;100.00
19672;BME280;9983;51.114;13.788;2023-03-04T10:05:23;99522.47;;;4.12;100.00
19672;BME280;9983;51.114;13.788;2023-03-04T10:10:35;99520.53;;;4.14;100.00
19672;BME280;9983;51.114;13.788;2023-03-04T10:15:41;99511.66;;;3.73;100.00
19672;BME280;9983;51.114;13.788;2023-03-04T10:20:51;99514.28;;;4.65;100.00
19672;BME280;9983;51.114;13.788;2023-03-04T10:25:53;99503.91;;;3.81;100.00
19672;BME280;9983;51.114;13.788;2023-03-04T10:31:01;99499.13;;;3.75;100.00
19672;BME280;9983;51.114;13.788;2023-03-04T10:41:25;99501.25;;;4.12;100.00
19672;BME280;9983;51.114;13.788;2023-03-04T10:46:26;99501.97;;;3.84;100.00
19672;BME280;9983;51.114;13.788;2023-03-04T10:51:28;99491.91;;;4.57;100.00
19672;BME280;9983;51.114;13.788;2023-03-04T10:56:40;99485.25;;;3.93;100.00
19672;BME280;9983;51.114;13.788;2023-03-04T11:01:44;99491.84;;;4.38;100.00
19672;BME280;9983;51.114;13.788;2023-03-04T11:06:44;99501.75;;;4.36;100.00
19672;BME280;9983;51.114;13.788;2023-03-04T11:11:45;99490.69;;;4.31;100.00
19672;BME280;9983;51.114;13.788;2023-03-04T11:17:24;99485.38;;;4.81;100.00
19672;BME280;9983;51.114;13.788;2023-03-04T11:22:27;99474.88;;;4.79;100.00
19672;BME280;9983;51.114;13.788;2023-03-04T11:27:57;99479.03;;;4.63;100.00
19672;BME280;9983;51.114;13.788;2023-03-04T11:33:28;99478.25;;;4.91;100.00
19672;BME280;9983;51.114;13.788;2023-03-04T11:38:36;99479.13;;;4.32;100.00
19672;BME280;9983;51.114;13.788;2023-03-04T11:43:42;99471.53;;;4.87;100.00
19672;BME280;9983;51.114;13.788;2023-03-04T11:48:45;99468.19;;;4.85;100.00
19672;BME280;9983;51.114;13.788;2023-03-04T11:54:15;99457.97;;;4.90;100.00
19672;BME280;9983;51.114;13.788;2023-03-04T11:59:36;99464.22;;;4.70;100.00
19672;BME280;9983;51.114;13.788;2023-03-04T12:05:03;99463.13;;;5.20;100.00
19672;BME280;9983;51.114;13.788;2023-03-04T12:10:29;99455.88;;;5.03;100.00
19672;BME280;9983;51.114;13.788;2023-03-04T12:26:42;99423.13;;;5.31;100.00
19672;BME280;9983;51.114;13.788;2023-03-04T12:31:49;99418.13;;;5.19;100.00
19672;BME280;9983;51.114;13.788;2023-03-04T12:42:56;99409.97;;;5.20;100.00
19672;BME280;9983;51.114;13.788;2023-03-04T12:48:13;99390.28;;;5.13;100.00
19672;BME280;9983;51.114;13.788;2023-03-04T12:53:44;99400.41;;;5.47;100.00
19672;BME280;9983;51.114;13.788;2023-03-04T12:58:51;99405.16;;;5.53;100.00
19672;BME280;9983;51.114;13.788;2023-03-04T13:09:27;99392.56;;;5.55;100.00
19672;BME280;9983;51.114;13.788;2023-03-04T13:14:30;99377.59;;;6.18;100.00
19672;BME280;9983;51.114;13.788;2023-03-04T13:19:56;99382.47;;;6.23;100.00
19672;BME280;9983;51.114;13.788;2023-03-04T13:24:58;99382.84;;;6.10;100.00
19672;BME280;9983;51.114;13.788;2023-03-04T13:30:00;99363.13;;;6.21;100.00
19672;BME280;9983;51.114;13.788;2023-03-04T13:35:01;99374.50;;;5.95;100.00
19672;BME280;9983;51.114;13.788;2023-03-04T13:45:36;99357.81;;;6.21;100.00
19672;BME280;9983;51.114;13.788;2023-03-04T13:50:40;99350.53;;;6.23;100.00
19672;BME280;9983;51.114;13.788;2023-03-04T13:56:09;99342.63;;;6.31;100.00
19672;BME280;9983;51.114;13.788;2023-03-04T14:01:28;99354.91;;;6.59;100.00
19672;BME280;9983;51.114;13.788;2023-03-04T14:06:30;99340.59;;;6.60;100.00
19672;BME280;9983;51.114;13.788;2023-03-04T14:11:41;99348.59;;;6.60;100.00
19672;BME280;9983;51.114;13.788;2023-03-04T14:16:48;99328.31;;;6.67;100.00
19672;BME280;9983;51.114;13.788;2023-03-04T14:21:49;99348.47;;;6.70;100.00
19672;BME280;9983;51.114;13.788;2023-03-04T14:27:03;99340.94;;;6.65;100.00
19672;BME280;9983;51.114;13.788;2023-03-04T14:32:10;99328.00;;;6.70;100.00
19672;BME280;9983;51.114;13.788;2023-03-04T14:37:26;99334.25;;;6.26;100.00
19672;BME280;9983;51.114;13.788;2023-03-04T14:42:39;99345.84;;;6.52;100.00
19672;BME280;9983;51.114;13.788;2023-03-04T14:47:43;99347.97;;;6.66;100.00
19672;BME280;9983;51.114;13.788;2023-03-04T14:52:48;99343.81;;;6.90;100.00
19672;BME280;9983;51.114;13.788;2023-03-04T14:57:52;99346.38;;;7.17;100.00
19672;BME280;9983;51.114;13.788;2023-03-04T15:13:46;99335.47;;;6.84;95.92
19672;BME280;9983;51.114;13.788;2023-03-04T15:19:03;99343.19;;;6.96;91.96
19672;BME280;9983;51.114;13.788;2023-03-04T15:24:06;99334.53;;;6.94;89.50
19672;BME280;9983;51.114;13.788;2023-03-04T15:29:13;99328.53;;;6.74;88.02
19672;BME280;9983;51.114;13.788;2023-03-04T15:34:16;99332.13;;;6.82;86.35
19672;BME280;9983;51.114;13.788;2023-03-04T15:39:17;99341.19;;;6.54;83.88
19672;BME280;9983;51.114;13.788;2023-03-04T15:44:18;99332.88;;;6.22;84.14
19672;BME280;9983;51.114;13.788;2023-03-04T15:49:18;99346.75;;;6.43;83.81
19672;BME280;9983;51.114;13.788;2023-03-04T15:54:19;99337.78;;;6.44;82.82
19672;BME280;9983;51.114;13.788;2023-03-04T15:59:20;99345.00;;;6.34;83.04
19672;BME280;9983;51.114;13.788;2023-03-04T16:04:21;99344.38;;;6.40;82.44
19672;BME280;9983;51.114;13.788;2023-03-04T16:09:22;99346.59;;;6.27;83.75
19672;BME280;9983;51.114;13.788;2023-03-04T16:14:22;99346.13;;;6.49;81.45
19672;BME280;9983;51.114;13.788;2023-03-04T16:19:22;99351.41;;;6.14;83.30
19672;BME280;9983;51.114;13.788;2023-03-04T16:24:22;99346.19;;;6.39;81.48
19672;BME280;9983;51.114;13.788;2023-03-04T16:29:23;99343.69;;;6.38;82.37
19672;BME280;9983;51.114;13.788;2023-03-04T16:34:23;99341.63;;;6.32;82.05
19672;BME280;9983;51.114;13.788;2023-03-04T16:39:24;99347.94;;;6.31;81.74
19672;BME280;9983;51.114;13.788;2023-03-04T16:44:27;99346.66;;;6.35;82.16
19672;BME280;9983;51.114;13.788;2023-03-04T16:49:27;99354.59;;;5.99;82.31
19672;BME280;9983;51.114;13.788;2023-03-04T16:54:30;99351.38;;;5.96;83.26
19672;BME280;9983;51.114;13.788;2023-03-04T16:59:31;99350.94;;;6.00;83.80
19672;BME280;9983;51.114;13.788;2023-03-04T17:04:32;99351.25;;;5.97;84.54
19672;BME280;9983;51.114;13.788;2023-03-04T17:09:32;99357.06;;;6.11;84.47
19672;BME280;9983;51.114;13.788;2023-03-04T17:14:32;99357.06;;;6.11;85.81
19672;BME280;9983;51.114;13.788;2023-03-04T17:19:33;99362.47;;;5.91;87.70
19672;BME280;9983;51.114;13.788;2023-03-04T17:24:33;99360.53;;;5.93;87.88
19672;BME280;9983;51.114;13.788;2023-03-04T17:29:33;99367.81;;;5.91;87.56
19672;BME280;9983;51.114;13.788;2023-03-04T17:34:33;99374.50;;;5.95;88.28
19672;BME280;9983;51.114;13.788;2023-03-04T17:39:34;99369.81;;;5.70;88.92
19672;BME280;9983;51.114;13.788;2023-03-04T17:44:34;99377.34;;;5.84;90.05
19672;BME280;9983;51.114;13.788;2023-03-04T17:49:34;99383.81;;;5.72;91.33
19672;BME280;9983;51.114;13.788;2023-03-04T17:54:34;99385.88;;;5.78;92.27
19672;BME280;9983;51.114;13.788;2023-03-04T17:59:38;99380.34;;;5.62;98.20
19672;BME280;9983;51.114;13.788;2023-03-04T18:04:38;99383.22;;;5.88;98.18
19672;BME280;9983;51.114;13.788;2023-03-04T18:09:38;99386.94;;;5.67;100.00
19672;BME280;9983;51.114;13.788;2023-03-04T18:14:39;99388.22;;;6.00;99.66
19672;BME280;9983;51.114;13.788;2023-03-04T18:19:39;99381.84;;;5.74;94.60
19672;BME280;9983;51.114;13.788;2023-03-04T18:24:39;99376.28;;;5.67;93.61
19672;BME280;9983;51.114;13.788;2023-03-04T18:29:41;99368.88;;;5.98;90.94
19672;BME280;9983;51.114;13.788;2023-03-04T18:34:41;99376.06;;;6.16;88.52
19672;BME280;9983;51.114;13.788;2023-03-04T18:39:41;99378.91;;;5.77;87.21
19672;BME280;9983;51.114;13.788;2023-03-04T18:44:41;99379.69;;;5.60;87.45
19672;BME280;9983;51.114;13.788;2023-03-04T18:49:42;99379.28;;;5.82;86.75
19672;BME280;9983;51.114;13.788;2023-03-04T18:54:43;99374.84;;;5.73;85.18
19672;BME280;9983;51.114;13.788;2023-03-04T18:59:56;99379.69;;;5.60;83.60
19672;BME280;9983;51.114;13.788;2023-03-04T19:05:05;99386.38;;;5.64;83.45
19672;BME280;9983;51.114;13.788;2023-03-04T19:10:06;99382.34;;;5.87;81.56
19672;BME280;9983;51.114;13.788;2023-03-04T19:15:08;99382.78;;;5.46;81.77
19672;BME280;9983;51.114;13.788;2023-03-04T19:20:09;99387.97;;;5.38;82.12
19672;BME280;9983;51.114;13.788;2023-03-04T19:25:10;99395.78;;;5.49;81.33
19672;BME280;9983;51.114;13.788;2023-03-04T19:30:11;99393.28;;;5.47;82.16
19672;BME280;9983;51.114;13.788;2023-03-04T19:35:11;99387.44;;;5.71;82.00
19672;BME280;9983;51.114;13.788;2023-03-04T19:40:12;99392.38;;;5.66;83.55
19672;BME280;9983;51.114;13.788;2023-03-04T19:45:12;99388.09;;;5.46;86.56
19672;BME280;9983;51.114;13.788;2023-03-04T19:50:12;99388.91;;;5.56;89.50
19672;BME280;9983;51.114;13.788;2023-03-04T19:55:13;99395.13;;;5.37;93.75
19672;BME280;9983;51.114;13.788;2023-03-04T20:00:13;99388.94;;;5.46;94.77
19672;BME280;9983;51.114;13.788;2023-03-04T20:05:14;99391.47;;;5.38;98.54
19672;BME280;9983;51.114;13.788;2023-03-04T20:10:14;99393.41;;;5.46;100.00
19672;BME280;9983;51.114;13.788;2023-03-04T20:15:15;99390.00;;;5.63;99.98
19672;BME280;9983;51.114;13.788;2023-03-04T20:20:15;99402.44;;;5.25;100.00
19672;BME280;9983;51.114;13.788;2023-03-04T20:25:16;99399.34;;;5.20;100.00
19672;BME280;9983;51.114;13.788;2023-03-04T20:30:16;99399.94;;;4.85;100.00
19672;BME280;9983;51.114;13.788;2023-03-04T20:35:17;99399.47;;;5.28;100.00
19672;BME280;9983;51.114;13.788;2023-03-04T20:40:17;99404.41;;;4.94;100.00
19672;BME280;9983;51.114;13.788;2023-03-04T20:45:17;99403.59;;;4.75;100.00
19672;BME280;9983;51.114;13.788;2023-03-04T20:50:19;99393.25;;;4.91;100.00
19672;BME280;9983;51.114;13.788;2023-03-04T20:55:19;99387.22;;;5.08;100.00
19672;BME280;9983;51.114;13.788;2023-03-04T21:00:20;99388.38;;;4.77;100.00
19672;BME280;9983;51.114;13.788;2023-03-04T21:05:20;99391.84;;;4.68;100.00
19672;BME280;9983;51.114;13.788;2023-03-04T21:10:20;99385.81;;;5.04;100.00
19672;BME280;9983;51.114;13.788;2023-03-04T21:15:22;99380.81;;;4.82;100.00
19672;BME280;9983;51.114;13.788;2023-03-04T21:20:22;99387.22;;;4.99;100.00
19672;BME280;9983;51.114;13.788;2023-03-04T21:25:22;99383.44;;;5.01;100.00
19672;BME280;9983;51.114;13.788;2023-03-04T21:30:23;99386.25;;;4.90;100.00
19672;BME280;9983;51.114;13.788;2023-03-04T21:35:23;99375.75;;;4.79;100.00
19672;BME280;9983;51.114;13.788;2023-03-04T21:40:23;99374.78;;;4.80;100.00
19672;BME280;9983;51.114;13.788;2023-03-04T21:45:24;99382.75;;;4.61;100.00
19672;BME280;9983;51.114;13.788;2023-03-04T21:50:24;99377.31;;;4.72;100.00
19672;BME280;9983;51.114;13.788;2023-03-04T21:55:24;99373.94;;;4.70;100.00
19672;BME280;9983;51.114;13.788;2023-03-04T22:00:24;99376.47;;;4.62;100.00
19672;BME280;9983;51.114;13.788;2023-03-04T22:05:25;99366.94;;;4.69;100.00
19672;BME280;9983;51.114;13.788;2023-03-04T22:10:25;99359.41;;;4.74;100.00
19672;BME280;9983;51.114;13.788;2023-03-04T22:15:25;99354.69;;;4.68;100.00
19672;BME280;9983;51.114;13.788;2023-03-04T22:20:25;99366.97;;;4.49;100.00
19672;BME280;9983;51.114;13.788;2023-03-04T22:25:26;99363.03;;;4.53;100.00
19672;BME280;9983;51.114;13.788;2023-03-04T22:30:26;99350.75;;;4.33;100.00
19672;BME280;9983;51.114;13.788;2023-03-04T22:35:27;99344.91;;;4.68;100.00
19672;BME280;9983;51.114;13.788;2023-03-04T22:40:27;99344.19;;;4.66;100.00
19672;BME280;9983;51.114;13.788;2023-03-04T22:45:29;99333.97;;;4.62;100.00
19672;BME280;9983;51.114;13.788;2023-03-04T22:50:29;99333.00;;;4.63;100.00
19672;BME280;9983;51.114;13.788;2023-03-04T22:55:29;99347.25;;;4.62;100.00
19672;BME280;9983;51.114;13.788;2023-03-04T23:00:30;99344.91;;;4.58;100.00
19672;BME280;9983;51.114;13.788;2023-03-04T23:05:31;99348.78;;;4.54;100.00
19672;BME280;9983;51.114;13.788;2023-03-04T23:10:31;99345.72;;;4.49;100.00
19672;BME280;9983;51.114;13.788;2023-03-04T23:15:31;99350.19;;;4.49;100.00
19672;BME280;9983;51.114;13.788;2023-03-04T23:20:31;99332.88;;;4.54;100.00
19672;BME280;9983;51.114;13.788;2023-03-04T23:25:35;99330.38;;;4.34;100.00
19672;BME280;9983;51.114;13.788;2023-03-04T23:30:36;99334.25;;;4.20;100.00
19672;BME280;9983;51.114;13.788;2023-03-04T23:35:36;99329.81;;;4.40;100.00
19672;BME280;9983;51.114;13.788;2023-03-04T23:40:36;99319.19;;;4.49;100.00
19672;BME280;9983;51.114;13.788;2023-03-04T23:45:36;99321.69;;;4.41;100.00
19672;BME280;9983;51.114;13.788;2023-03-04T23:50:37;99331.72;;;4.09;100.00
19672;BME280;9983;51.114;13.788;2023-03-04T23:55:40;99318.63;;;4.46;100.00
